sensor_id;sensor_type;location;lat;lon;timestamp;pressure;altitude;pressure_sealevel;temperature;humidity
39891;BME280;25564;53.312;9.790;2022-08-18T00:00:21;100400.81;;;20.22;89.42
39891;BME280;25564;53.312;9.790;2022-08-18T00:02:54;100405.81;;;20.28;88.81
39891;BME280;25564;53.312;9.790;2022-08-18T00:05:42;100407.53;;;20.29;89.20
39891;BME280;25564;53.312;9.790;2022-08-18T00:08:15;100407.75;;;20.26;89.24
39891;BME280;25564;53.312;9.790;2022-08-18T00:10:47;100414.00;;;20.27;88.69
39891;BME280;25564;53.312;9.790;2022-08-18T00:13:20;100413.22;;;20.24;88.71
39891;BME280;25564;53.312;9.790;2022-08-18T00:15:53;100413.50;;;20.20;88.52
39891;BME280;25564;53.312;9.790;2022-08-18T00:18:24;100417.34;;;20.16;88.29
39891;BME280;25564;53.312;9.790;2022-08-18T00:20:55;100419.38;;;20.12;88.95
39891;BME280;25564;53.312;9.790;2022-08-18T00:23:28;100414.19;;;20.09;88.77
39891;BME280;25564;53.312;9.790;2022-08-18T00:26:02;100416.09;;;20.07;88.99
39891;BME280;25564;53.312;9.790;2022-08-18T00:28:34;100414.38;;;20.06;89.07
39891;BME280;25564;53.312;9.790;2022-08-18T00:31:06;100416.28;;;20.04;88.49
39891;BME280;25564;53.312;9.790;2022-08-18T00:33:37;100429.94;;;20.01;88.50
39891;BME280;25564;53.312;9.790;2022-08-18T00:36:09;100416.06;;;19.93;88.85
39891;BME280;25564;53.312;9.790;2022-08-18T00:38:41;100429.44;;;19.95;88.41
39891;BME280;25564;53.312;9.790;2022-08-18T00:41:12;100418.19;;;19.88;88.70
39891;BME280;25564;53.312;9.790;2022-08-18T00:43:47;100411.25;;;19.84;88.73
39891;BME280;25564;53.312;9.790;2022-08-18T00:46:24;100419.41;;;19.82;89.04
39891;BME280;25564;53.312;9.790;2022-08-18T00:48:56;100415.56;;;19.72;88.54
39891;BME280;25564;53.312;9.790;2022-08-18T00:51:39;100415.75;;;19.69;88.52
39891;BME280;25564;53.312;9.790;2022-08-18T00:54:18;100426.63;;;19.68;88.44
39891;BME280;25564;53.312;9.790;2022-08-18T00:56:59;100429.78;;;19.60;88.55
39891;BME280;25564;53.312;9.790;2022-08-18T00:59:37;100428.53;;;19.50;89.09
39891;BME280;25564;53.312;9.790;2022-08-18T01:02:35;100435.84;;;19.48;89.02
39891;BME280;25564;53.312;9.790;2022-08-18T01:05:18;100431.69;;;19.42;88.99
39891;BME280;25564;53.312;9.790;2022-08-18T01:07:51;100437.25;;;19.39;89.33
39891;BME280;25564;53.312;9.790;2022-08-18T01:10:23;100435.59;;;19.37;89.54
39891;BME280;25564;53.312;9.790;2022-08-18T01:12:57;100426.84;;;19.33;88.90
39891;BME280;25564;53.312;9.790;2022-08-18T01:15:28;100432.41;;;19.30;89.16
39891;BME280;25564;53.312;9.790;2022-08-18T01:18:05;100415.75;;;19.23;89.50
39891;BME280;25564;53.312;9.790;2022-08-18T01:21:04;100421.13;;;19.23;89.20
39891;BME280;25564;53.312;9.790;2022-08-18T01:23:57;100423.13;;;19.20;89.69
39891;BME280;25564;53.312;9.790;2022-08-18T01:26:30;100416.38;;;19.13;89.86
39891;BME280;25564;53.312;9.790;2022-08-18T01:29:06;100421.66;;;19.14;89.37
39891;BME280;25564;53.312;9.790;2022-08-18T01:31:51;100424.44;;;19.13;89.65
39891;BME280;25564;53.312;9.790;2022-08-18T01:34:27;100428.16;;;19.10;90.34
39891;BME280;25564;53.312;9.790;2022-08-18T01:36:58;100419.31;;;19.08;89.91
39891;BME280;25564;53.312;9.790;2022-08-18T01:39:30;100423.91;;;19.06;90.13
39891;BME280;25564;53.312;9.790;2022-08-18T01:42:21;100422.88;;;19.09;89.92
39891;BME280;25564;53.312;9.790;2022-08-18T01:44:52;100422.69;;;19.12;90.06
39891;BME280;25564;53.312;9.790;2022-08-18T01:47:24;100419.75;;;19.16;90.31
39891;BME280;25564;53.312;9.790;2022-08-18T01:49:56;100408.22;;;19.14;89.98
39891;BME280;25564;53.312;9.790;2022-08-18T01:52:28;100415.94;;;19.20;90.28
39891;BME280;25564;53.312;9.790;2022-08-18T01:55:00;100413.94;;;19.24;89.94
39891;BME280;25564;53.312;9.790;2022-08-18T01:57:32;100408.38;;;19.27;89.67
39891;BME280;25564;53.312;9.790;2022-08-18T02:00:04;100407.59;;;19.25;89.65
39891;BME280;25564;53.312;9.790;2022-08-18T02:02:36;100414.53;;;19.29;89.70
39891;BME280;25564;53.312;9.790;2022-08-18T02:05:13;100403.94;;;19.26;89.51
39891;BME280;25564;53.312;9.790;2022-08-18T02:07:46;100414.69;;;19.26;89.71
39891;BME280;25564;53.312;9.790;2022-08-18T02:10:24;100408.72;;;19.21;89.83
39891;BME280;25564;53.312;9.790;2022-08-18T02:12:55;100409.84;;;19.17;89.36
39891;BME280;25564;53.312;9.790;2022-08-18T02:15:27;100409.25;;;19.12;89.55
39891;BME280;25564;53.312;9.790;2022-08-18T02:17:58;100408.81;;;19.04;89.70
39891;BME280;25564;53.312;9.790;2022-08-18T02:20:30;100400.94;;;19.01;89.74
39891;BME280;25564;53.312;9.790;2022-08-18T02:23:02;100404.75;;;18.97;89.85
39891;BME280;25564;53.312;9.790;2022-08-18T02:25:33;100405.00;;;18.92;90.07
39891;BME280;25564;53.312;9.790;2022-08-18T02:28:04;100406.16;;;18.88;89.53
39891;BME280;25564;53.312;9.790;2022-08-18T02:30:36;100409.19;;;18.82;90.15
39891;BME280;25564;53.312;9.790;2022-08-18T02:33:09;100398.50;;;18.80;89.58
39891;BME280;25564;53.312;9.790;2022-08-18T02:35:41;100399.56;;;18.78;89.56
39891;BME280;25564;53.312;9.790;2022-08-18T02:38:14;100395.38;;;18.72;89.81
39891;BME280;25564;53.312;9.790;2022-08-18T02:40:56;100390.22;;;18.69;89.35
39891;BME280;25564;53.312;9.790;2022-08-18T02:43:29;100387.53;;;18.69;90.09
39891;BME280;25564;53.312;9.790;2022-08-18T02:46:07;100392.91;;;18.69;89.95
39891;BME280;25564;53.312;9.790;2022-08-18T02:48:39;100390.38;;;18.66;89.77
39891;BME280;25564;53.312;9.790;2022-08-18T02:51:13;100387.13;;;18.59;89.69
39891;BME280;25564;53.312;9.790;2022-08-18T02:53:46;100391.81;;;18.56;89.82
39891;BME280;25564;53.312;9.790;2022-08-18T02:56:20;100399.88;;;18.56;89.77
39891;BME280;25564;53.312;9.790;2022-08-18T02:59:15;100400.13;;;18.51;89.84
39891;BME280;25564;53.312;9.790;2022-08-18T03:01:50;100403.84;;;18.49;90.01
39891;BME280;25564;53.312;9.790;2022-08-18T03:04:25;100401.34;;;18.46;89.98
39891;BME280;25564;53.312;9.790;2022-08-18T03:07:02;100406.97;;;18.41;90.09
39891;BME280;25564;53.312;9.790;2022-08-18T03:09:35;100409.75;;;18.40;90.30
39891;BME280;25564;53.312;9.790;2022-08-18T03:12:07;100411.81;;;18.35;90.11
39891;BME280;25564;53.312;9.790;2022-08-18T03:14:39;100420.72;;;18.35;90.25
39891;BME280;25564;53.312;9.790;2022-08-18T03:17:10;100427.22;;;18.31;89.97
39891;BME280;25564;53.312;9.790;2022-08-18T03:19:43;100418.13;;;18.34;90.29
39891;BME280;25564;53.312;9.790;2022-08-18T03:22:18;100421.78;;;18.33;90.20
39891;BME280;25564;53.312;9.790;2022-08-18T03:24:59;100423.66;;;18.30;90.02
39891;BME280;25564;53.312;9.790;2022-08-18T03:27:31;100429.91;;;18.31;90.47
39891;BME280;25564;53.312;9.790;2022-08-18T03:30:02;100432.69;;;18.29;90.36
39891;BME280;25564;53.312;9.790;2022-08-18T03:32:41;100430.94;;;18.28;90.31
39891;BME280;25564;53.312;9.790;2022-08-18T03:35:16;100429.13;;;18.29;90.16
39891;BME280;25564;53.312;9.790;2022-08-18T03:37:47;100420.38;;;18.25;90.32
39891;BME280;25564;53.312;9.790;2022-08-18T03:40:19;100431.91;;;18.27;90.19
39891;BME280;25564;53.312;9.790;2022-08-18T03:42:50;100422.44;;;18.20;90.41
39891;BME280;25564;53.312;9.790;2022-08-18T03:45:22;100427.63;;;18.23;90.49
39891;BME280;25564;53.312;9.790;2022-08-18T03:47:54;100413.59;;;18.18;90.49
39891;BME280;25564;53.312;9.790;2022-08-18T03:50:27;100417.94;;;18.21;90.28
39891;BME280;25564;53.312;9.790;2022-08-18T03:52:59;100434.91;;;18.21;90.37
39891;BME280;25564;53.312;9.790;2022-08-18T03:55:30;100423.72;;;18.13;90.70
39891;BME280;25564;53.312;9.790;2022-08-18T03:58:02;100431.59;;;18.16;90.56
39891;BME280;25564;53.312;9.790;2022-08-18T04:00:37;100421.03;;;18.13;90.55
39891;BME280;25564;53.312;9.790;2022-08-18T04:03:08;100426.41;;;18.13;90.84
39891;BME280;25564;53.312;9.790;2022-08-18T04:05:41;100427.34;;;18.12;90.65
39891;BME280;25564;53.312;9.790;2022-08-18T04:08:12;100417.63;;;18.10;90.60
39891;BME280;25564;53.312;9.790;2022-08-18T04:10:43;100402.09;;;17.99;90.85
39891;BME280;25564;53.312;9.790;2022-08-18T04:13:15;100412.50;;;18.05;90.73
39891;BME280;25564;53.312;9.790;2022-08-18T04:15:46;100410.59;;;18.07;90.77
39891;BME280;25564;53.312;9.790;2022-08-18T04:18:17;100419.28;;;18.12;90.76
39891;BME280;25564;53.312;9.790;2022-08-18T04:20:49;100424.50;;;18.15;90.80
39891;BME280;25564;53.312;9.790;2022-08-18T04:23:30;100418.16;;;18.16;90.68
39891;BME280;25564;53.312;9.790;2022-08-18T04:26:14;100416.28;;;18.18;90.43
39891;BME280;25564;53.312;9.790;2022-08-18T04:28:49;100406.31;;;18.20;90.30
39891;BME280;25564;53.312;9.790;2022-08-18T04:31:20;100416.03;;;18.23;90.83
39891;BME280;25564;53.312;9.790;2022-08-18T04:33:57;100405.28;;;18.23;90.52
39891;BME280;25564;53.312;9.790;2022-08-18T04:36:30;100413.78;;;18.31;90.51
39891;BME280;25564;53.312;9.790;2022-08-18T04:39:06;100420.72;;;18.35;90.15
39891;BME280;25564;53.312;9.790;2022-08-18T04:41:39;100431.22;;;18.40;90.30
39891;BME280;25564;53.312;9.790;2022-08-18T04:44:11;100432.72;;;18.45;90.42
39891;BME280;25564;53.312;9.790;2022-08-18T04:46:45;100420.47;;;18.40;90.12
39891;BME280;25564;53.312;9.790;2022-08-18T04:49:23;100436.56;;;18.57;90.06
39891;BME280;25564;53.312;9.790;2022-08-18T04:51:56;100443.03;;;18.70;90.75
39891;BME280;25564;53.312;9.790;2022-08-18T04:55:08;100448.31;;;18.87;90.37
39891;BME280;25564;53.312;9.790;2022-08-18T04:57:40;100459.41;;;18.97;90.12
39891;BME280;25564;53.312;9.790;2022-08-18T05:00:12;100465.91;;;19.09;90.06
39891;BME280;25564;53.312;9.790;2022-08-18T05:02:44;100464.69;;;19.14;89.64
39891;BME280;25564;53.312;9.790;2022-08-18T05:05:15;100466.25;;;19.18;90.07
39891;BME280;25564;53.312;9.790;2022-08-18T05:07:47;100465.81;;;19.26;89.49
39891;BME280;25564;53.312;9.790;2022-08-18T05:10:18;100459.22;;;19.32;89.50
39891;BME280;25564;53.312;9.790;2022-08-18T05:12:49;100466.84;;;19.39;89.23
39891;BME280;25564;53.312;9.790;2022-08-18T05:15:21;100463.13;;;19.42;89.37
39891;BME280;25564;53.312;9.790;2022-08-18T05:17:52;100471.00;;;19.45;89.32
39891;BME280;25564;53.312;9.790;2022-08-18T05:20:24;100478.72;;;19.51;88.89
39891;BME280;25564;53.312;9.790;2022-08-18T05:22:56;100475.97;;;19.52;89.19
39891;BME280;25564;53.312;9.790;2022-08-18T05:25:27;100488.47;;;19.53;88.90
39891;BME280;25564;53.312;9.790;2022-08-18T05:27:59;100481.28;;;19.54;88.78
39891;BME280;25564;53.312;9.790;2022-08-18T05:30:31;100490.63;;;19.63;88.72
39891;BME280;25564;53.312;9.790;2022-08-18T05:33:02;100491.50;;;19.63;88.24
39891;BME280;25564;53.312;9.790;2022-08-18T05:35:43;100485.16;;;19.64;88.71
39891;BME280;25564;53.312;9.790;2022-08-18T05:41:40;100495.25;;;19.61;88.55
39891;BME280;25564;53.312;9.790;2022-08-18T05:44:13;100487.34;;;19.57;87.92
39891;BME280;25564;53.312;9.790;2022-08-18T05:47:00;100488.47;;;19.53;88.12
39891;BME280;25564;53.312;9.790;2022-08-18T05:49:35;100491.41;;;19.49;88.37
39891;BME280;25564;53.312;9.790;2022-08-18T05:52:12;100491.75;;;19.43;88.44
39891;BME280;25564;53.312;9.790;2022-08-18T05:54:51;100478.91;;;19.48;88.30
39891;BME280;25564;53.312;9.790;2022-08-18T05:57:46;100478.13;;;19.46;88.32
39891;BME280;25564;53.312;9.790;2022-08-18T06:00:21;100495.78;;;19.51;88.64
39891;BME280;25564;53.312;9.790;2022-08-18T06:02:57;100485.00;;;19.51;88.21
39891;BME280;25564;53.312;9.790;2022-08-18T06:05:35;100489.34;;;19.54;88.14
39891;BME280;25564;53.312;9.790;2022-08-18T06:08:11;100493.88;;;19.53;88.75
39891;BME280;25564;53.312;9.790;2022-08-18T06:10:47;100492.91;;;19.54;88.32
39891;BME280;25564;53.312;9.790;2022-08-18T06:13:18;100502.72;;;19.55;88.30
39891;BME280;25564;53.312;9.790;2022-08-18T06:18:48;100497.34;;;19.55;88.40
39891;BME280;25564;53.312;9.790;2022-08-18T06:21:40;100498.22;;;19.56;88.57
39891;BME280;25564;53.312;9.790;2022-08-18T06:30:11;100514.88;;;19.63;88.55
39891;BME280;25564;53.312;9.790;2022-08-18T06:35:51;100515.66;;;19.65;88.34
39891;BME280;25564;53.312;9.790;2022-08-18T06:38:34;100525.28;;;19.69;88.29
39891;BME280;25564;53.312;9.790;2022-08-18T06:41:19;100519.91;;;19.69;88.78
39891;BME280;25564;53.312;9.790;2022-08-18T06:44:16;100529.53;;;19.73;88.55
39891;BME280;25564;53.312;9.790;2022-08-18T06:46:55;100528.38;;;19.77;88.56
39891;BME280;25564;53.312;9.790;2022-08-18T06:49:55;100533.22;;;19.86;88.60
39891;BME280;25564;53.312;9.790;2022-08-18T06:52:34;100526.69;;;19.90;88.65
39891;BME280;25564;53.312;9.790;2022-08-18T06:55:15;100531.13;;;19.91;88.88
39891;BME280;25564;53.312;9.790;2022-08-18T06:57:59;100536.31;;;19.94;89.06
39891;BME280;25564;53.312;9.790;2022-08-18T07:00:33;100543.16;;;20.00;88.94
39891;BME280;25564;53.312;9.790;2022-08-18T07:03:14;100539.25;;;20.05;88.97
39891;BME280;25564;53.312;9.790;2022-08-18T07:08:53;100531.56;;;20.13;88.77
39891;BME280;25564;53.312;9.790;2022-08-18T07:11:28;100535.13;;;20.14;88.99
39891;BME280;25564;53.312;9.790;2022-08-18T07:14:21;100542.53;;;20.10;88.91
39891;BME280;25564;53.312;9.790;2022-08-18T07:17:12;100546.19;;;20.09;88.44
39891;BME280;25564;53.312;9.790;2022-08-18T07:19:53;100545.03;;;20.13;88.92
39891;BME280;25564;53.312;9.790;2022-08-18T07:22:25;100550.84;;;20.21;88.41
39891;BME280;25564;53.312;9.790;2022-08-18T07:25:18;100539.69;;;20.28;88.32
39891;BME280;25564;53.312;9.790;2022-08-18T07:27:53;100540.09;;;20.36;88.36
39891;BME280;25564;53.312;9.790;2022-08-18T07:30:31;100542.47;;;20.42;88.41
39891;BME280;25564;53.312;9.790;2022-08-18T07:33:15;100537.38;;;20.51;88.47
39891;BME280;25564;53.312;9.790;2022-08-18T07:35:57;100546.44;;;20.65;88.79
39891;BME280;25564;53.312;9.790;2022-08-18T07:38:55;100555.50;;;20.78;88.34
39891;BME280;25564;53.312;9.790;2022-08-18T07:41:41;100555.75;;;20.87;88.17
39891;BME280;25564;53.312;9.790;2022-08-18T07:44:19;100549.97;;;20.94;87.97
39891;BME280;25564;53.312;9.790;2022-08-18T07:47:04;100556.13;;;21.10;87.60
39891;BME280;25564;53.312;9.790;2022-08-18T07:49:36;100561.66;;;21.23;87.84
39891;BME280;25564;53.312;9.790;2022-08-18T07:52:28;100552.88;;;21.33;87.50
39891;BME280;25564;53.312;9.790;2022-08-18T07:55:26;100570.19;;;21.43;87.15
39891;BME280;25564;53.312;9.790;2022-08-18T07:58:16;100563.63;;;21.47;87.14
39891;BME280;25564;53.312;9.790;2022-08-18T08:01:03;100572.09;;;21.56;87.32
39891;BME280;25564;53.312;9.790;2022-08-18T08:06:18;100568.81;;;21.65;86.76
39891;BME280;25564;53.312;9.790;2022-08-18T08:09:19;100561.47;;;21.67;86.31
39891;BME280;25564;53.312;9.790;2022-08-18T08:12:03;100568.00;;;21.77;86.05
39891;BME280;25564;53.312;9.790;2022-08-18T08:14:46;100575.25;;;21.89;86.10
39891;BME280;25564;53.312;9.790;2022-08-18T08:17:37;100570.78;;;22.02;86.38
39891;BME280;25564;53.312;9.790;2022-08-18T08:20:20;100569.66;;;22.19;85.59
39891;BME280;25564;53.312;9.790;2022-08-18T08:23:04;100575.09;;;22.44;85.82
39891;BME280;25564;53.312;9.790;2022-08-18T08:26:02;100562.03;;;22.64;84.96
39891;BME280;25564;53.312;9.790;2022-08-18T08:28:55;100563.16;;;22.87;84.65
39891;BME280;25564;53.312;9.790;2022-08-18T08:31:47;100567.66;;;23.11;84.04
39891;BME280;25564;53.312;9.790;2022-08-18T08:34:24;100561.47;;;23.22;83.04
39891;BME280;25564;53.312;9.790;2022-08-18T08:37:03;100552.59;;;23.20;82.98
39891;BME280;25564;53.312;9.790;2022-08-18T08:39:45;100562.75;;;23.29;82.15
39891;BME280;25564;53.312;9.790;2022-08-18T08:42:27;100565.88;;;23.36;81.96
39891;BME280;25564;53.312;9.790;2022-08-18T08:45:15;100565.31;;;23.56;81.55
39891;BME280;25564;53.312;9.790;2022-08-18T08:50:23;100570.88;;;23.78;80.37
39891;BME280;25564;53.312;9.790;2022-08-18T08:52:59;100567.59;;;23.86;80.04
39891;BME280;25564;53.312;9.790;2022-08-18T08:55:39;100571.78;;;23.90;80.23
39891;BME280;25564;53.312;9.790;2022-08-18T08:58:25;100572.38;;;24.18;80.54
39891;BME280;25564;53.312;9.790;2022-08-18T09:00:58;100574.72;;;24.46;79.32
39891;BME280;25564;53.312;9.790;2022-08-18T09:03:55;100564.88;;;24.56;78.64
39891;BME280;25564;53.312;9.790;2022-08-18T09:06:41;100569.72;;;24.64;78.33
39891;BME280;25564;53.312;9.790;2022-08-18T09:09:32;100565.91;;;24.77;77.50
39891;BME280;25564;53.312;9.790;2022-08-18T09:15:28;100569.16;;;25.16;76.13
39891;BME280;25564;53.312;9.790;2022-08-18T09:18:25;100560.50;;;25.45;75.29
39891;BME280;25564;53.312;9.790;2022-08-18T09:23:41;100571.22;;;25.57;74.80
39891;BME280;25564;53.312;9.790;2022-08-18T09:31:45;100579.75;;;25.53;73.58
39891;BME280;25564;53.312;9.790;2022-08-18T09:34:24;100571.09;;;25.48;72.82
39891;BME280;25564;53.312;9.790;2022-08-18T09:37:11;100572.22;;;25.34;72.81
39891;BME280;25564;53.312;9.790;2022-08-18T09:39:59;100578.91;;;25.30;73.33
39891;BME280;25564;53.312;9.790;2022-08-18T09:43:15;100567.41;;;25.37;73.67
39891;BME280;25564;53.312;9.790;2022-08-18T09:45:54;100572.56;;;25.63;73.04
39891;BME280;25564;53.312;9.790;2022-08-18T09:48:30;100569.97;;;25.72;72.21
39891;BME280;25564;53.312;9.790;2022-08-18T09:51:33;100567.88;;;25.76;70.55
39891;BME280;25564;53.312;9.790;2022-08-18T09:54:08;100571.44;;;25.77;71.39
39891;BME280;25564;53.312;9.790;2022-08-18T10:02:08;100565.78;;;26.00;71.55
39891;BME280;25564;53.312;9.790;2022-08-18T10:07:50;100564.69;;;26.35;70.94
39891;BME280;25564;53.312;9.790;2022-08-18T10:10:40;100555.53;;;26.36;69.73
39891;BME280;25564;53.312;9.790;2022-08-18T10:22:09;100566.41;;;26.78;68.91
39891;BME280;25564;53.312;9.790;2022-08-18T10:24:52;100562.34;;;26.72;67.58
39891;BME280;25564;53.312;9.790;2022-08-18T10:36:43;100579.88;;;26.58;67.95
39891;BME280;25564;53.312;9.790;2022-08-18T10:39:22;100587.72;;;26.73;67.93
39891;BME280;25564;53.312;9.790;2022-08-18T10:42:03;100587.19;;;26.79;67.15
39891;BME280;25564;53.312;9.790;2022-08-18T10:44:41;100583.06;;;26.84;66.78
39891;BME280;25564;53.312;9.790;2022-08-18T10:47:43;100576.75;;;26.84;65.71
39891;BME280;25564;53.312;9.790;2022-08-18T10:50:21;100577.22;;;26.89;66.56
39891;BME280;25564;53.312;9.790;2022-08-18T10:55:59;100580.50;;;27.13;65.51
39891;BME280;25564;53.312;9.790;2022-08-18T10:58:46;100573.69;;;27.28;65.27
39891;BME280;25564;53.312;9.790;2022-08-18T11:01:26;100580.47;;;27.44;65.21
39891;BME280;25564;53.312;9.790;2022-08-18T11:04:10;100577.13;;;27.61;64.90
39891;BME280;25564;53.312;9.790;2022-08-18T11:07:14;100576.03;;;27.83;64.01
39891;BME280;25564;53.312;9.790;2022-08-18T11:09:51;100583.78;;;27.87;63.79
39891;BME280;25564;53.312;9.790;2022-08-18T11:15:34;100584.25;;;28.31;64.16
39891;BME280;25564;53.312;9.790;2022-08-18T11:24:25;100580.16;;;28.74;61.63
39891;BME280;25564;53.312;9.790;2022-08-18T11:26:59;100579.88;;;28.77;61.60
39891;BME280;25564;53.312;9.790;2022-08-18T11:29:41;100586.06;;;28.69;61.34
39891;BME280;25564;53.312;9.790;2022-08-18T11:37:36;100581.47;;;28.12;60.26
39891;BME280;25564;53.312;9.790;2022-08-18T11:40:45;100581.63;;;27.91;60.82
39891;BME280;25564;53.312;9.790;2022-08-18T11:43:38;100580.72;;;27.71;60.57
39891;BME280;25564;53.312;9.790;2022-08-18T11:49:14;100569.53;;;27.64;61.17
39891;BME280;25564;53.312;9.790;2022-08-18T11:51:55;100573.00;;;27.76;61.12
39891;BME280;25564;53.312;9.790;2022-08-18T11:54:42;100564.94;;;27.75;61.10
39891;BME280;25564;53.312;9.790;2022-08-18T11:57:52;100562.22;;;27.75;60.97
39891;BME280;25564;53.312;9.790;2022-08-18T12:03:43;100565.41;;;27.99;62.11
39891;BME280;25564;53.312;9.790;2022-08-18T12:06:26;100554.34;;;28.10;61.57
39891;BME280;25564;53.312;9.790;2022-08-18T12:09:11;100555.78;;;28.14;61.32
39891;BME280;25564;53.312;9.790;2022-08-18T12:12:26;100560.66;;;28.11;60.71
39891;BME280;25564;53.312;9.790;2022-08-18T12:15:25;100560.97;;;28.08;60.76
39891;BME280;25564;53.312;9.790;2022-08-18T12:18:15;100555.81;;;28.05;60.92
39891;BME280;25564;53.312;9.790;2022-08-18T12:21:08;100554.94;;;28.04;60.82
39891;BME280;25564;53.312;9.790;2022-08-18T12:23:41;100549.44;;;28.14;60.62
39891;BME280;25564;53.312;9.790;2022-08-18T12:26:22;100554.34;;;28.39;60.33
39891;BME280;25564;53.312;9.790;2022-08-18T12:29:09;100552.63;;;28.38;59.65
39891;BME280;25564;53.312;9.790;2022-08-18T12:31:41;100550.88;;;28.18;59.29
39891;BME280;25564;53.312;9.790;2022-08-18T12:34:20;100551.16;;;28.15;59.78
39891;BME280;25564;53.312;9.790;2022-08-18T12:36:58;100548.31;;;28.26;60.46
39891;BME280;25564;53.312;9.790;2022-08-18T12:39:40;100538.56;;;28.33;59.81
39891;BME280;25564;53.312;9.790;2022-08-18T12:42:15;100531.34;;;28.42;60.02
39891;BME280;25564;53.312;9.790;2022-08-18T12:44:46;100536.94;;;28.59;59.51
39891;BME280;25564;53.312;9.790;2022-08-18T12:47:21;100528.41;;;28.72;58.94
39891;BME280;25564;53.312;9.790;2022-08-18T12:49:53;100529.56;;;28.79;58.13
39891;BME280;25564;53.312;9.790;2022-08-18T12:52:24;100524.91;;;28.99;58.08
39891;BME280;25564;53.312;9.790;2022-08-18T12:54:56;100529.97;;;29.21;57.87
39891;BME280;25564;53.312;9.790;2022-08-18T12:57:28;100535.22;;;29.33;57.52
39891;BME280;25564;53.312;9.790;2022-08-18T13:00:20;100524.69;;;29.38;57.46
39891;BME280;25564;53.312;9.790;2022-08-18T13:02:58;100532.50;;;29.33;56.63
39891;BME280;25564;53.312;9.790;2022-08-18T13:05:29;100514.97;;;29.08;56.06
39891;BME280;25564;53.312;9.790;2022-08-18T13:08:02;100509.72;;;28.87;56.59
39891;BME280;25564;53.312;9.790;2022-08-18T13:10:35;100520.53;;;28.69;56.93
39891;BME280;25564;53.312;9.790;2022-08-18T13:13:18;100509.03;;;28.65;56.86
39891;BME280;25564;53.312;9.790;2022-08-18T13:15:50;100526.72;;;28.61;56.80
39891;BME280;25564;53.312;9.790;2022-08-18T13:18:29;100528.75;;;28.59;57.08
39891;BME280;25564;53.312;9.790;2022-08-18T13:21:02;100528.13;;;28.75;56.66
39891;BME280;25564;53.312;9.790;2022-08-18T13:23:33;100532.88;;;28.83;56.91
39891;BME280;25564;53.312;9.790;2022-08-18T13:26:07;100515.47;;;28.84;56.69
39891;BME280;25564;53.312;9.790;2022-08-18T13:28:39;100524.06;;;28.99;56.89
39891;BME280;25564;53.312;9.790;2022-08-18T13:31:28;100507.78;;;29.24;56.86
39891;BME280;25564;53.312;9.790;2022-08-18T13:34:03;100506.88;;;29.61;56.73
39891;BME280;25564;53.312;9.790;2022-08-18T13:36:45;100504.78;;;29.90;55.84
39891;BME280;25564;53.312;9.790;2022-08-18T13:39:21;100502.31;;;30.15;54.77
39891;BME280;25564;53.312;9.790;2022-08-18T13:41:54;100515.00;;;30.24;54.06
39891;BME280;25564;53.312;9.790;2022-08-18T13:44:30;100513.78;;;30.18;54.92
39891;BME280;25564;53.312;9.790;2022-08-18T13:47:02;100506.56;;;30.17;54.22
39891;BME280;25564;53.312;9.790;2022-08-18T13:49:36;100506.81;;;30.24;55.25
39891;BME280;25564;53.312;9.790;2022-08-18T13:52:09;100503.91;;;30.25;53.75
39891;BME280;25564;53.312;9.790;2022-08-18T13:55:05;100506.19;;;29.94;54.25
39891;BME280;25564;53.312;9.790;2022-08-18T13:57:39;100517.66;;;29.63;54.44
39891;BME280;25564;53.312;9.790;2022-08-18T14:00:16;100513.75;;;29.38;54.90
39891;BME280;25564;53.312;9.790;2022-08-18T14:03:00;100519.94;;;29.12;55.45
39891;BME280;25564;53.312;9.790;2022-08-18T14:05:35;100511.25;;;28.99;55.94
39891;BME280;25564;53.312;9.790;2022-08-18T14:08:22;100505.06;;;28.97;56.06
39891;BME280;25564;53.312;9.790;2022-08-18T14:10:56;100470.47;;;28.88;55.34
39891;BME280;25564;53.312;9.790;2022-08-18T14:13:29;100494.44;;;28.94;55.42
39891;BME280;25564;53.312;9.790;2022-08-18T14:16:13;100489.59;;;28.88;56.16
39891;BME280;25564;53.312;9.790;2022-08-18T14:18:49;100488.16;;;28.84;56.02
39891;BME280;25564;53.312;9.790;2022-08-18T14:21:58;100495.75;;;28.80;55.92
39891;BME280;25564;53.312;9.790;2022-08-18T14:24:49;100504.47;;;29.03;56.27
39891;BME280;25564;53.312;9.790;2022-08-18T14:27:39;100514.06;;;29.35;55.35
39891;BME280;25564;53.312;9.790;2022-08-18T14:30:11;100517.13;;;29.59;54.67
39891;BME280;25564;53.312;9.790;2022-08-18T14:32:44;100520.25;;;29.64;53.00
39891;BME280;25564;53.312;9.790;2022-08-18T14:35:20;100527.19;;;29.58;53.22
39891;BME280;25564;53.312;9.790;2022-08-18T14:38:13;100527.88;;;29.43;53.03
39891;BME280;25564;53.312;9.790;2022-08-18T14:40:46;100528.25;;;29.20;53.37
39891;BME280;25564;53.312;9.790;2022-08-18T14:43:19;100532.41;;;28.97;53.79
39891;BME280;25564;53.312;9.790;2022-08-18T14:45:57;100534.47;;;28.66;54.96
39891;BME280;25564;53.312;9.790;2022-08-18T14:48:28;100534.78;;;28.53;55.55
39891;BME280;25564;53.312;9.790;2022-08-18T14:51:00;100519.13;;;28.55;55.62
39891;BME280;25564;53.312;9.790;2022-08-18T14:53:33;100525.41;;;28.65;55.19
39891;BME280;25564;53.312;9.790;2022-08-18T14:56:06;100524.53;;;28.75;55.38
39891;BME280;25564;53.312;9.790;2022-08-18T14:58:40;100518.50;;;28.71;55.84
39891;BME280;25564;53.312;9.790;2022-08-18T15:01:12;100518.13;;;28.56;55.46
39891;BME280;25564;53.312;9.790;2022-08-18T15:03:46;100508.81;;;28.20;56.23
39891;BME280;25564;53.312;9.790;2022-08-18T15:06:19;100544.16;;;28.22;56.92
39891;BME280;25564;53.312;9.790;2022-08-18T15:08:57;100538.72;;;28.22;57.21
39891;BME280;25564;53.312;9.790;2022-08-18T15:11:29;100548.88;;;28.20;56.87
39891;BME280;25564;53.312;9.790;2022-08-18T15:14:02;100548.00;;;28.10;57.16